Time;durP1;ratioP1;P1;durP2;ratioP2;P2;SDS_P1;SDS_P2;PMS_P1;PMS_P2;Temp;Humidity;BMP_temperature;BMP_pressure;BME280_temperature;BME280_humidity;BME280_pressure;Samples;Min_cycle;Max_cycle;Signal;HPM_P1;HPM_P2
2021/07/02 00:00:20;;;;;;;27.55;0.98;;;;;;;18.76;63.15;101712.16;5039475;28;20154;-81
2021/07/02 00:02:47;;;;;;;0.10;0.10;;;;;;;18.80;62.53;101712.91;5044245;28;20036;-82
2021/07/02 00:05:14;;;;;;;1.65;1.10;;;;;;;18.81;62.84;101714.66;5046711;28;20039;-81
2021/07/02 00:07:41;;;;;;;1.98;1.85;;;;;;;18.80;63.39;101712.91;5037064;28;20111;-81
2021/07/02 00:10:09;;;;;;;0.10;0.10;;;;;;;18.80;63.27;101712.91;5048842;28;20037;-81
2021/07/02 00:12:35;;;;;;;0.00;0.00;;;;;;;18.78;63.42;101709.38;5039687;28;20560;-82
2021/07/02 00:15:02;;;;;;;0.10;0.10;;;;;;;18.78;63.55;101710.28;5042235;28;20108;-82
2021/07/02 00:17:29;;;;;;;1.58;1.48;;;;;;;18.74;63.48;101712.22;5048415;28;20029;-82
2021/07/02 00:19:55;;;;;;;0.22;0.22;;;;;;;18.75;63.24;101710.38;5036904;28;20039;-81
2021/07/02 00:22:21;;;;;;;0.10;0.10;;;;;;;18.69;63.89;101716.91;5040229;28;20071;-83
2021/07/02 00:24:48;;;;;;;0.08;0.08;;;;;;;18.69;63.59;101707.94;5044273;28;20120;-82
2021/07/02 00:27:16;;;;;;;0.10;0.10;;;;;;;18.71;63.49;101714.16;5046342;28;20021;-83
2021/07/02 00:29:43;;;;;;;0.00;0.00;;;;;;;18.68;63.67;101709.78;5036503;28;20026;-82
2021/07/02 00:32:11;;;;;;;0.40;0.40;;;;;;;18.63;63.40;101708.19;5049046;28;20040;-82
2021/07/02 00:34:38;;;;;;;0.00;0.00;;;;;;;18.56;63.71;101705.75;5040835;28;20534;-82
2021/07/02 00:37:04;;;;;;;0.10;0.10;;;;;;;18.58;63.63;101703.03;5041608;28;20052;-82
2021/07/02 00:39:31;;;;;;;0.00;0.00;;;;;;;18.53;63.85;101705.00;5048530;28;20017;-82
2021/07/02 00:41:57;;;;;;;0.10;0.10;;;;;;;18.55;64.14;101709.38;5047346;28;20087;-82
2021/07/02 00:44:42;;;;;;;0.30;0.30;;;;;;;18.64;63.46;101705.47;5038837;28;20025;-82
2021/07/02 00:47:10;;;;;;;0.10;0.10;;;;;;;18.58;63.69;101706.59;5040892;28;20445;-82
2021/07/02 00:49:38;;;;;;;0.00;0.00;;;;;;;18.61;63.72;101702.91;5047963;28;20025;-82
2021/07/02 00:52:07;;;;;;;0.00;0.00;;;;;;;18.52;64.26;101708.66;5036489;28;20021;-82
2021/07/02 00:54:35;;;;;;;0.43;0.28;;;;;;;18.51;63.98;101696.16;5045164;28;20045;-82
2021/07/02 00:57:03;;;;;;;0.15;0.15;;;;;;;18.56;63.94;101699.53;5044066;28;20082;-82
2021/07/02 00:59:30;;;;;;;0.10;0.10;;;;;;;18.58;63.88;101703.03;5038084;28;20064;-82
2021/07/02 01:01:58;;;;;;;0.90;0.65;;;;;;;18.62;63.72;101698.41;5048334;28;20045;-82
2021/07/02 01:04:24;;;;;;;0.10;0.10;;;;;;;18.60;63.75;101701.16;5039102;28;20021;-82
2021/07/02 01:06:52;;;;;;;0.00;0.00;;;;;;;18.65;63.95;101693.78;5043139;28;20029;-82
2021/07/02 01:09:22;;;;;;;0.00;0.00;;;;;;;18.53;64.61;101700.53;5046185;28;20119;-81
2021/07/02 01:11:49;;;;;;;0.38;0.38;;;;;;;18.58;63.90;101693.16;5035004;28;20036;-81
2021/07/02 01:14:15;;;;;;;0.00;0.00;;;;;;;18.60;64.04;101690.41;5047831;28;20118;-81
2021/07/02 01:16:43;;;;;;;0.10;0.10;;;;;;;18.57;63.87;101690.56;5041609;28;20037;-82
2021/07/02 01:19:09;;;;;;;0.20;0.20;;;;;;;18.62;63.81;101698.41;5040255;28;20438;-81
2021/07/02 01:21:36;;;;;;;0.10;0.10;;;;;;;18.61;64.00;101697.53;5049069;28;20056;-81
2021/07/02 01:24:03;;;;;;;0.10;0.10;;;;;;;18.63;64.13;101697.47;5036161;28;20060;-82
2021/07/02 01:26:31;;;;;;;0.10;0.10;;;;;;;18.69;63.74;101694.53;5045868;28;20032;-82
2021/07/02 01:28:58;;;;;;;0.20;0.20;;;;;;;18.61;63.87;101692.16;5042017;28;20037;-81
2021/07/02 01:31:25;;;;;;;0.10;0.10;;;;;;;18.57;63.87;101696.78;5038209;28;20473;-81
2021/07/02 01:33:52;;;;;;;0.10;0.10;;;;;;;18.56;63.70;101695.03;5035529;28;20034;-82
2021/07/02 01:36:21;;;;;;;0.05;0.05;;;;;;;18.56;63.56;101695.03;5047600;28;20037;-82
2021/07/02 01:38:48;;;;;;;1.00;1.00;;;;;;;18.58;63.68;101692.31;5040066;28;20042;-82
2021/07/02 01:41:15;;;;;;;0.03;0.03;;;;;;;18.52;63.94;101692.53;5042193;28;20548;-82
2021/07/02 01:43:42;;;;;;;0.43;0.43;;;;;;;18.53;63.80;101691.59;5052576;28;20033;-82
2021/07/02 01:46:24;;;;;;;0.10;0.10;;;;;;;18.57;64.04;101690.56;5040606;28;20024;-82
2021/07/02 01:48:50;;;;;;;;;;;;;;;18.57;64.91;101688.72;5035920;28;20037;-83
2021/07/02 01:51:17;;;;;;;0.98;0.85;;;;;;;18.36;65.57;101687.78;5036481;28;19913;-82
2021/07/02 01:53:43;;;;;;;0.17;0.17;;;;;;;18.37;64.76;101684.16;5044587;28;20040;-82
2021/07/02 01:56:10;;;;;;;5.05;2.85;;;;;;;18.41;65.09;101675.03;5048630;28;20032;-82
2021/07/02 01:58:36;;;;;;;0.30;0.30;;;;;;;18.32;64.89;101675.41;5048095;28;20025;-82
2021/07/02 02:01:03;;;;;;;0.10;0.10;;;;;;;18.37;64.81;101677.94;5047605;28;20075;-82
2021/07/02 02:03:29;;;;;;;1.42;1.33;;;;;;;18.43;64.53;101673.19;5040476;28;20030;-83
2021/07/02 02:05:57;;;;;;;0.90;0.90;;;;;;;18.29;65.31;101675.53;5051462;28;20029;-82
2021/07/02 02:08:25;;;;;;;0.22;0.22;;;;;;;18.42;64.92;101673.25;5041900;28;20029;-82
2021/07/02 02:10:51;;;;;;;0.00;0.00;;;;;;;18.39;65.23;101682.31;5046381;28;20025;-82
2021/07/02 02:13:18;;;;;;;0.10;0.10;;;;;;;18.35;65.15;101680.66;5049002;28;20028;-82
2021/07/02 02:15:44;;;;;;;0.10;0.10;;;;;;;18.38;65.16;101679.66;5039359;28;20056;-82
2021/07/02 02:18:11;;;;;;;0.00;0.00;;;;;;;18.24;65.36;101677.50;5050013;28;20160;-82
2021/07/02 02:20:38;;;;;;;1.58;1.50;;;;;;;18.21;65.75;101672.28;5039987;28;20017;-82
2021/07/02 02:23:05;;;;;;;0.38;0.38;;;;;;;18.27;65.49;101677.41;5046149;28;20051;-82
2021/07/02 02:25:31;;;;;;;0.28;0.28;;;;;;;18.21;65.92;101674.97;5040436;28;20033;-82
2021/07/02 02:27:57;;;;;;;0.13;0.13;;;;;;;18.15;66.00;101672.53;5051582;28;20037;-82
2021/07/02 02:30:24;;;;;;;0.60;0.60;;;;;;;18.15;65.66;101677.88;5041612;28;20070;-82
2021/07/02 02:32:51;;;;;;;0.17;0.17;;;;;;;17.99;66.85;101666.88;5044628;28;20037;-82
2021/07/02 02:35:17;;;;;;;0.03;0.03;;;;;;;18.09;66.08;101669.16;5049091;28;20029;-82
2021/07/02 02:37:43;;;;;;;0.10;0.10;;;;;;;17.86;67.15;101671.78;5037609;28;20107;-82
2021/07/02 02:40:11;;;;;;;0.30;0.30;;;;;;;18.05;66.90;101672.84;5039898;28;20399;-82
2021/07/02 02:42:40;;;;;;;0.57;0.57;;;;;;;17.96;66.69;101670.53;5035470;28;20476;-82
2021/07/02 02:45:07;;;;;;;0.10;0.10;;;;;;;18.04;66.60;101667.56;5043328;28;20038;-82
2021/07/02 02:47:35;;;;;;;1.30;1.25;;;;;;;17.99;66.94;101673.09;5050363;28;20111;-82
2021/07/02 02:50:02;;;;;;;0.10;0.10;;;;;;;18.10;66.66;101672.69;5037230;28;20056;-82
2021/07/02 02:52:29;;;;;;;0.10;0.10;;;;;;;18.01;67.29;101663.19;5047677;28;20476;-82
2021/07/02 02:54:56;;;;;;;4.18;1.00;;;;;;;18.11;66.64;101661.91;5045151;28;20147;-82
2021/07/02 02:57:23;;;;;;;1.30;1.00;;;;;;;17.91;67.59;101665.31;5041037;28;20029;-82
2021/07/02 02:59:49;;;;;;;0.10;0.10;;;;;;;18.07;67.33;101675.50;5051133;28;20025;-83
2021/07/02 03:02:15;;;;;;;0.40;0.40;;;;;;;17.99;67.39;101667.72;5040131;28;20025;-82
2021/07/02 03:04:42;;;;;;;0.10;0.10;;;;;;;17.99;67.42;101675.78;5044847;28;20025;-82
2021/07/02 03:07:08;;;;;;;0.10;0.10;;;;;;;18.05;67.47;101675.53;5046831;28;20021;-82
2021/07/02 03:09:35;;;;;;;0.57;0.57;;;;;;;18.14;67.11;101673.44;5038959;28;20059;-82
2021/07/02 03:12:02;;;;;;;0.30;0.30;;;;;;;18.13;67.46;101669.91;5050028;28;20027;-82
2021/07/02 03:14:28;;;;;;;0.20;0.20;;;;;;;18.21;66.64;101672.28;5041102;28;20392;-82
2021/07/02 03:16:55;;;;;;;3.58;0.43;;;;;;;18.25;67.11;101668.53;5044371;28;20033;-82
2021/07/02 03:19:21;;;;;;;0.10;0.10;;;;;;;18.26;66.66;101664.94;5048339;28;20451;-82
2021/07/02 03:21:49;;;;;;;0.25;0.25;;;;;;;18.25;67.18;101669.41;5038196;28;20022;-82
2021/07/02 03:24:16;;;;;;;0.32;0.32;;;;;;;18.29;66.96;101664.78;5049693;28;20154;-82
2021/07/02 03:26:42;;;;;;;0.00;0.00;;;;;;;18.23;67.09;101668.59;5043283;28;20033;-82
2021/07/02 03:29:09;;;;;;;0.75;0.75;;;;;;;18.34;66.56;101662.78;5042183;28;20037;-83
2021/07/02 03:31:35;;;;;;;0.10;0.10;;;;;;;18.35;66.47;101661.00;5050329;28;20052;-82
2021/07/02 03:34:01;;;;;;;1.17;1.17;;;;;;;18.31;67.27;101657.56;5037357;28;20051;-83
2021/07/02 03:36:28;;;;;;;0.20;0.20;;;;;;;18.33;66.65;101663.75;5047763;28;20034;-83
2021/07/02 03:38:54;;;;;;;0.50;0.20;;;;;;;18.43;66.57;101666.97;5044456;28;20067;-82
2021/07/02 03:41:21;;;;;;;0.10;0.10;;;;;;;18.35;66.48;101664.56;5040361;28;20041;-83
2021/07/02 03:43:47;;;;;;;0.10;0.10;;;;;;;18.28;66.81;101668.44;5050246;28;20474;-82
2021/07/02 03:46:13;;;;;;;0.43;0.43;;;;;;;18.27;66.79;101670.22;5038667;28;20044;-82
2021/07/02 03:48:39;;;;;;;0.35;0.35;;;;;;;18.29;66.47;101675.53;5045499;28;20044;-82
2021/07/02 03:51:06;;;;;;;0.60;0.60;;;;;;;18.30;66.55;101671.06;5046109;28;20054;-82
2021/07/02 03:53:33;;;;;;;0.43;0.43;;;;;;;18.27;66.96;101680.09;5037990;28;20037;-82
2021/07/02 03:56:01;;;;;;;0.10;0.10;;;;;;;18.25;67.02;101682.81;5050609;28;20058;-82
2021/07/02 03:58:27;;;;;;;0.30;0.30;;;;;;;18.30;66.87;101677.28;5040255;28;20051;-83
2021/07/02 04:00:55;;;;;;;0.30;0.30;;;;;;;18.25;67.19;101676.59;5043939;28;20520;-83
2021/07/02 04:03:21;;;;;;;0.10;0.10;;;;;;;18.25;67.69;101679.28;5046890;28;20111;-81
2021/07/02 04:05:47;;;;;;;0.10;0.10;;;;;;;18.35;67.03;101690.53;5037184;28;20053;-82
2021/07/02 04:08:13;;;;;;;0.08;0.08;;;;;;;18.31;67.03;101684.41;5048826;28;20054;-83
2021/07/02 04:10:44;;;;;;;0.60;0.60;;;;;;;18.32;66.78;101687.94;5041994;28;20040;-82
2021/07/02 04:13:10;;;;;;;0.70;0.70;;;;;;;18.19;67.74;101687.56;5040587;28;20426;-82
2021/07/02 04:15:38;;;;;;;0.63;0.63;;;;;;;18.20;67.96;101689.31;5049515;28;20120;-82
2021/07/02 04:18:11;;;;;;;0.20;0.20;;;;;;;18.23;67.94;101691.84;5036664;28;20024;-82
2021/07/02 04:20:49;;;;;;;0.35;0.30;;;;;;;18.16;68.16;101691.22;5044080;28;20042;-82
2021/07/02 04:23:24;;;;;;;0.17;0.17;;;;;;;18.20;67.71;101692.84;5046079;28;20080;-82
2021/07/02 04:25:50;;;;;;;0.10;0.10;;;;;;;18.26;67.85;101686.38;5036852;28;20061;-82
2021/07/02 04:28:16;;;;;;;0.10;0.10;;;;;;;18.27;67.81;101688.16;5048091;28;20040;-82
2021/07/02 04:30:42;;;;;;;0.22;0.22;;;;;;;18.25;68.02;101690.00;5042206;28;20064;-82
2021/07/02 04:33:09;;;;;;;0.00;0.00;;;;;;;18.31;67.44;101691.59;5040708;28;20032;-82
2021/07/02 04:35:35;;;;;;;0.00;0.00;;;;;;;18.32;67.50;101691.50;5049089;28;20425;-82
2021/07/02 04:38:01;;;;;;;1.23;0.73;;;;;;;18.35;67.66;101691.38;5036245;28;20033;-83
2021/07/02 04:40:27;;;;;;;0.57;0.57;;;;;;;18.41;67.29;101692.97;5046397;28;20022;-82
2021/07/02 04:42:53;;;;;;;1.35;0.75;;;;;;;18.43;67.79;101699.16;5042784;28;20033;-83
2021/07/02 04:45:19;;;;;;;0.10;0.10;;;;;;;18.46;67.89;101695.47;5039448;28;20038;-82
2021/07/02 04:47:46;;;;;;;0.32;0.32;;;;;;;18.47;67.73;101697.19;5048166;28;20032;-82
2021/07/02 04:50:12;;;;;;;2.75;0.63;;;;;;;18.47;67.30;101689.16;5037386;28;20083;-83
2021/07/02 04:52:38;;;;;;;0.00;0.00;;;;;;;18.47;67.70;101695.41;5046549;28;20025;-82
2021/07/02 04:55:05;;;;;;;0.10;0.10;;;;;;;18.52;67.61;101684.50;5039477;28;20048;-83
2021/07/02 04:57:31;;;;;;;0.10;0.10;;;;;;;18.53;68.02;101680.84;5040620;28;20053;-83
2021/07/02 05:00:01;;;;;;;0.10;0.10;;;;;;;18.39;68.27;101686.78;5049064;28;20068;-83
2021/07/02 05:02:27;;;;;;;0.25;0.25;;;;;;;18.32;68.23;101691.50;5044633;28;20041;-82
2021/07/02 05:04:54;;;;;;;0.22;0.22;;;;;;;18.45;67.80;101681.16;5042881;28;20475;-82
2021/07/02 05:07:20;;;;;;;0.68;0.68;;;;;;;18.47;67.71;101679.31;5039292;28;20484;-82
2021/07/02 05:09:46;;;;;;;1.85;1.75;;;;;;;18.45;67.59;101683.00;5049043;28;20112;-82
2021/07/02 05:12:12;;;;;;;0.10;0.10;;;;;;;18.45;67.59;101693.72;5036879;28;20045;-83
2021/07/02 05:14:39;;;;;;;0.43;0.43;;;;;;;18.37;68.08;101689.53;5035094;28;20552;-83
2021/07/02 05:17:07;;;;;;;0.73;0.73;;;;;;;18.41;67.86;101685.78;5032689;28;20041;-83
2021/07/02 05:19:34;;;;;;;3.25;1.75;;;;;;;18.40;67.80;101689.38;5034218;28;20053;-84
2021/07/02 05:22:00;;;;;;;0.32;0.32;;;;;;;18.38;68.05;101685.91;5039332;28;20469;-81
2021/07/02 05:24:27;;;;;;;4.25;1.75;;;;;;;18.43;67.84;101683.91;5035339;28;20071;-82
2021/07/02 05:26:53;;;;;;;0.10;0.10;;;;;;;18.38;68.20;101688.59;5023736;28;20060;-82
2021/07/02 05:29:19;;;;;;;0.80;0.68;;;;;;;18.43;68.24;101691.97;5019590;28;20132;-82
2021/07/02 05:31:47;;;;;;;1.27;1.17;;;;;;;18.50;67.76;101695.28;5028844;28;20030;-82
2021/07/02 05:34:13;;;;;;;0.25;0.25;;;;;;;18.42;68.53;101692.91;5020766;28;20117;-81
2021/07/02 05:36:39;;;;;;;0.80;0.80;;;;;;;18.49;68.03;101690.88;5024921;28;20112;-82
2021/07/02 05:39:05;;;;;;;0.60;0.40;;;;;;;18.62;67.78;101685.88;5025941;28;20088;-82
2021/07/02 05:41:31;;;;;;;0.15;0.15;;;;;;;18.48;68.34;101690.91;5031890;28;20120;-82
2021/07/02 05:43:58;;;;;;;1.00;0.55;;;;;;;18.59;67.93;101683.28;5032182;28;20073;-82
2021/07/02 05:46:25;;;;;;;0.77;0.77;;;;;;;18.56;68.06;101686.13;5016756;28;20029;-82
2021/07/02 05:48:51;;;;;;;0.77;0.77;;;;;;;18.69;68.37;101684.69;5016699;28;20120;-82
2021/07/02 05:51:17;;;;;;;0.57;0.57;;;;;;;18.72;68.43;101678.31;5038067;28;20037;-83
2021/07/02 05:53:44;;;;;;;0.10;0.10;;;;;;;18.68;68.26;101688.31;5018755;28;20033;-83
2021/07/02 05:56:10;;;;;;;2.95;1.15;;;;;;;18.55;68.39;101693.28;5030425;28;20026;-82
2021/07/02 05:58:36;;;;;;;0.20;0.20;;;;;;;18.60;68.16;101695.78;5033880;28;21335;-82
2021/07/02 06:01:02;;;;;;;1.65;1.25;;;;;;;18.63;68.21;101702.84;5024689;28;20046;-82
2021/07/02 06:03:28;;;;;;;0.10;0.10;;;;;;;18.63;68.27;101705.50;5031206;28;20037;-82
2021/07/02 06:05:54;;;;;;;1.40;0.73;;;;;;;18.64;68.01;101705.47;5025870;28;20029;-81
2021/07/02 06:08:20;;;;;;;0.20;0.20;;;;;;;18.63;68.04;101714.47;5023430;28;20033;-82
2021/07/02 06:10:47;;;;;;;0.43;0.43;;;;;;;18.59;68.40;101715.50;5026237;28;20508;-82
2021/07/02 06:13:13;;;;;;;0.43;0.43;;;;;;;18.65;67.81;101720.63;5023599;28;20060;-81
2021/07/02 06:15:39;;;;;;;0.10;0.10;;;;;;;18.62;67.95;101722.56;5025998;28;20030;-82
2021/07/02 06:18:08;;;;;;;0.47;0.47;;;;;;;18.68;67.60;101723.19;5025413;28;20060;-81
2021/07/02 06:20:35;;;;;;;0.10;0.10;;;;;;;18.70;67.96;101717.75;5018573;28;20497;-81
2021/07/02 06:23:02;;;;;;;0.00;0.00;;;;;;;18.65;67.72;101717.06;5016079;28;20037;-81
2021/07/02 06:25:28;;;;;;;0.30;0.30;;;;;;;18.67;67.97;101724.13;5016005;28;20119;-80
2021/07/02 06:27:54;;;;;;;0.85;0.85;;;;;;;18.62;68.40;101727.91;5015535;28;20061;-81
2021/07/02 06:30:21;;;;;;;0.20;0.20;;;;;;;18.67;68.58;101729.50;5015863;28;20036;-81
2021/07/02 06:32:47;;;;;;;1.00;1.00;;;;;;;18.76;68.28;101726.44;5015591;28;20076;-81
2021/07/02 06:35:15;;;;;;;0.00;0.00;;;;;;;18.80;67.87;101715.56;5015565;28;20030;-81
2021/07/02 06:37:48;;;;;;;3.80;1.15;;;;;;;18.79;68.18;101721.88;5015710;28;20037;-82
2021/07/02 06:40:15;;;;;;;0.50;0.50;;;;;;;18.88;68.16;101722.38;5014424;28;20061;-81
2021/07/02 06:42:42;;;;;;;0.88;0.88;;;;;;;18.90;68.11;101725.00;5015142;28;20434;-81
2021/07/02 06:45:11;;;;;;;0.00;0.00;;;;;;;18.87;68.62;101719.78;5015353;28;20034;-81
2021/07/02 06:50:37;;;;;;;0.15;0.15;;;;;;;19.05;67.96;101718.16;5078127;27;20497;-79
2021/07/02 06:53:05;;;;;;;0.10;0.10;;;;;;;19.05;68.07;101723.53;5063552;28;20021;-83
2021/07/02 06:55:33;;;;;;;1.75;0.90;;;;;;;19.11;67.75;101722.41;5050607;28;20491;-85
2021/07/02 06:57:59;;;;;;;0.15;0.15;;;;;;;19.13;67.84;101725.88;5050346;28;20044;-82
2021/07/02 07:00:27;;;;;;;1.15;0.50;;;;;;;19.26;67.31;101734.31;5050644;28;20428;-82
2021/07/02 07:02:54;;;;;;;0.20;0.20;;;;;;;18.94;68.26;101731.16;5050282;28;20029;-82
2021/07/02 07:05:21;;;;;;;0.57;0.57;;;;;;;19.12;68.01;101734.91;5050675;28;20048;-82
2021/07/02 07:07:47;;;;;;;1.00;1.00;;;;;;;19.15;68.26;101734.75;5050235;28;20029;-82
2021/07/02 07:10:13;;;;;;;3.40;1.00;;;;;;;19.11;68.13;101738.53;5049628;28;20389;-82
2021/07/02 07:12:40;;;;;;;0.45;0.45;;;;;;;19.18;67.90;101745.41;5048951;28;20116;-82
2021/07/02 07:15:07;;;;;;;1.13;0.75;;;;;;;19.25;67.93;101752.22;5050106;28;20032;-85
2021/07/02 07:17:33;;;;;;;0.10;0.10;;;;;;;19.20;68.20;101743.50;5038984;28;20037;-85
2021/07/02 07:19:59;;;;;;;0.10;0.10;;;;;;;19.30;67.96;101746.69;5029088;28;20060;-85
2021/07/02 07:22:27;;;;;;;0.20;0.20;;;;;;;19.37;67.92;101743.66;5028820;28;20122;-85
2021/07/02 07:24:53;;;;;;;0.68;0.68;;;;;;;19.24;67.96;101754.06;5028311;28;20037;-85
2021/07/02 07:27:19;;;;;;;0.63;0.63;;;;;;;19.24;67.91;101740.63;5030530;28;20030;-85
2021/07/02 07:29:46;;;;;;;0.38;0.38;;;;;;;19.34;67.81;101750.97;5029295;28;20473;-85
2021/07/02 07:32:12;;;;;;;0.20;0.20;;;;;;;19.36;67.74;101755.34;5028931;28;20041;-85
2021/07/02 07:34:45;;;;;;;0.10;0.10;;;;;;;19.43;67.68;101766.72;5029566;28;20022;-85
2021/07/02 07:37:17;;;;;;;0.28;0.28;;;;;;;19.40;67.65;101756.97;5028612;28;20113;-84
2021/07/02 07:39:43;;;;;;;2.42;0.80;;;;;;;19.27;67.63;101760.25;5028192;28;20033;-84
2021/07/02 07:42:14;;;;;;;0.32;0.32;;;;;;;19.39;67.54;101757.06;5030001;28;20179;-85
2021/07/02 07:44:41;;;;;;;0.20;0.20;;;;;;;19.21;67.83;101756.00;5029425;28;20026;-85
2021/07/02 07:47:08;;;;;;;0.25;0.25;;;;;;;19.39;67.41;101752.53;5029631;28;20033;-84
2021/07/02 07:49:35;;;;;;;2.22;0.75;;;;;;;19.41;67.91;101755.16;5044979;28;20029;-84
2021/07/02 07:52:24;;;;;;;0.20;0.20;;;;;;;19.55;67.67;101749.16;5048703;28;20034;-86
2021/07/02 07:54:47;;;;;;;0.15;0.15;;;;;;;19.69;67.32;101752.16;5047249;28;20071;-86
2021/07/02 07:57:13;;;;;;;0.25;0.25;;;;;;;19.79;67.44;101747.25;5049218;28;20172;-85
2021/07/02 07:59:39;;;;;;;0.03;0.03;;;;;;;19.97;67.24;101745.56;5047709;28;20508;-84
2021/07/02 08:02:06;;;;;;;0.25;0.25;;;;;;;20.16;66.77;101750.09;5035665;28;20036;-83
2021/07/02 08:04:33;;;;;;;0.13;0.13;;;;;;;20.15;66.48;101753.72;5035690;28;20116;-84
2021/07/02 08:06:59;;;;;;;0.47;0.47;;;;;;;20.13;66.27;101758.31;5035560;28;20025;-83
2021/07/02 08:09:26;;;;;;;0.10;0.10;;;;;;;20.32;66.00;101758.34;5034423;28;20033;-84
2021/07/02 08:11:53;;;;;;;0.10;0.10;;;;;;;20.44;66.08;101767.69;5034774;28;20030;-84
2021/07/02 08:14:19;;;;;;;0.10;0.10;;;;;;;20.57;65.93;101759.88;5034882;28;20534;-82
2021/07/02 08:16:45;;;;;;;0.43;0.43;;;;;;;20.77;65.99;101767.94;5035032;28;20030;-84
2021/07/02 08:19:11;;;;;;;0.20;0.20;;;;;;;20.96;65.23;101762.50;5033986;28;20026;-82
2021/07/02 08:21:38;;;;;;;0.10;0.10;;;;;;;21.06;63.42;101775.50;5034538;28;20192;-81
2021/07/02 08:24:05;;;;;;;0.22;0.22;;;;;;;21.18;63.46;101766.81;5032403;28;20389;-82
2021/07/02 08:26:31;;;;;;;0.10;0.10;;;;;;;21.22;62.97;101771.13;5034167;28;20022;-82
2021/07/02 08:29:29;;;;;;;3.70;1.65;;;;;;;21.28;63.76;101770.81;5033503;28;20021;-82
2021/07/02 08:31:43;;;;;;;0.10;0.10;;;;;;;21.21;63.14;101776.56;5032570;28;20045;-82
2021/07/02 08:34:09;;;;;;;0.43;0.43;;;;;;;21.25;62.65;101778.19;5034077;28;20039;-82
2021/07/02 08:36:35;;;;;;;0.20;0.20;;;;;;;20.99;62.81;101783.88;5034410;28;20017;-82
2021/07/02 08:39:02;;;;;;;0.63;0.57;;;;;;;21.20;63.13;101781.09;5034047;28;20108;-83
2021/07/02 08:41:29;;;;;;;0.80;0.80;;;;;;;21.31;63.15;101786.81;5034575;28;20040;-83
2021/07/02 08:43:55;;;;;;;0.45;0.45;;;;;;;21.36;63.01;101788.38;5034208;28;20032;-85
2021/07/02 08:46:24;;;;;;;0.30;0.30;;;;;;;21.41;61.21;101789.03;5034463;28;20494;-86
2021/07/02 08:48:51;;;;;;;0.00;0.00;;;;;;;21.57;62.27;101792.75;5033877;28;20040;-83
2021/07/02 08:51:18;;;;;;;0.38;0.38;;;;;;;21.58;62.06;101786.41;5033271;28;20060;-82
2021/07/02 08:53:44;;;;;;;0.43;0.43;;;;;;;21.55;61.00;101796.44;5033444;28;20384;-83
2021/07/02 08:56:10;;;;;;;0.10;0.10;;;;;;;21.35;59.81;101798.31;5034195;28;20499;-83
2021/07/02 08:58:37;;;;;;;0.17;0.10;;;;;;;21.47;60.43;101795.00;5033913;28;20053;-83
2021/07/02 09:01:08;;;;;;;0.40;0.40;;;;;;;21.59;60.35;101798.91;5034072;28;20469;-83
2021/07/02 09:03:36;;;;;;;0.10;0.10;;;;;;;21.78;61.49;101793.47;5032853;28;20029;-83
2021/07/02 09:09:04;;;;;;;0.20;0.20;;;;;;;21.96;59.00;101797.00;5077291;27;20467;-83
2021/07/02 09:11:32;;;;;;;0.20;0.20;;;;;;;22.00;59.68;101796.84;5069046;28;20024;-83
2021/07/02 09:13:59;;;;;;;0.43;0.43;;;;;;;21.98;59.94;101797.78;5063968;28;20139;-81
2021/07/02 09:16:39;;;;;;;0.10;0.10;;;;;;;21.88;59.01;101796.53;5058594;28;20095;-82
2021/07/02 09:19:28;;;;;;;0.22;0.22;;;;;;;21.86;58.13;101798.44;5061421;28;20549;-82
2021/07/02 09:22:15;;;;;;;0.40;0.40;;;;;;;21.92;59.00;101805.31;5058921;28;20033;-82
2021/07/02 09:24:44;;;;;;;0.30;0.30;;;;;;;21.71;59.14;101819.00;5058280;28;20025;-84
2021/07/02 09:27:29;;;;;;;1.23;0.43;;;;;;;21.72;59.55;101814.47;5060897;28;20025;-82
2021/07/02 09:30:13;;;;;;;0.60;0.60;;;;;;;21.68;58.42;101815.59;5057439;28;20037;-83
2021/07/02 09:32:41;;;;;;;0.35;0.35;;;;;;;21.45;57.57;101818.47;5061470;28;20083;-83
2021/07/02 09:35:09;;;;;;;0.10;0.10;;;;;;;21.78;58.06;101819.53;5057929;28;20029;-85
2021/07/02 09:37:41;;;;;;;0.52;0.52;;;;;;;21.81;57.24;101803.22;5059686;28;20154;-85
2021/07/02 09:40:25;;;;;;;0.55;0.55;;;;;;;21.90;57.06;101802.72;5058470;28;20033;-84
2021/07/02 09:45:55;;;;;;;0.17;0.17;;;;;;;21.86;57.54;101811.03;5061559;28;20443;-83
2021/07/02 09:48:27;;;;;;;0.40;0.40;;;;;;;21.94;57.29;101811.53;5048088;28;20451;-84
2021/07/02 09:51:01;;;;;;;0.10;0.10;;;;;;;21.90;56.80;101820.75;5049498;28;20044;-83
2021/07/02 09:53:30;;;;;;;0.55;0.55;;;;;;;21.85;57.29;101825.50;5046505;28;20037;-84
2021/07/02 09:55:58;;;;;;;0.10;0.10;;;;;;;21.99;57.66;101822.94;5039779;28;20040;-86
2021/07/02 09:58:28;;;;;;;0.20;0.20;;;;;;;21.97;56.79;101825.72;5040704;28;20455;-83
2021/07/02 10:03:35;;;;;;;0.10;0.10;;;;;;;22.06;56.01;101828.91;5038887;27;1239543;-85
2021/07/02 10:08:45;;;;;;;0.10;0.10;;;;;;;21.99;56.51;101833.72;5041063;28;20557;-84
2021/07/02 10:11:13;;;;;;;0.10;0.10;;;;;;;21.91;55.33;101836.84;5029763;28;20350;-85
2021/07/02 10:13:44;;;;;;;0.10;0.10;;;;;;;21.93;56.32;101845.72;5024567;28;20029;-84
2021/07/02 10:16:13;;;;;;;0.50;0.50;;;;;;;22.02;55.61;101844.38;4998318;28;20556;-82
2021/07/02 10:21:24;;;;;;;1.20;1.08;;;;;;;21.92;56.53;101859.28;5078942;28;20483;-84
2021/07/02 10:23:53;;;;;;;0.40;0.40;;;;;;;21.73;56.38;101860.25;5046946;28;20044;-84
2021/07/02 10:26:20;;;;;;;1.20;1.13;;;;;;;21.91;56.31;101862.97;5035029;28;20117;-84
2021/07/02 10:28:47;;;;;;;0.57;0.57;;;;;;;21.92;56.20;101868.28;5029954;28;20080;-83
2021/07/02 10:31:16;;;;;;;0.40;0.40;;;;;;;21.86;55.54;101860.50;5035264;28;20037;-82
2021/07/02 10:33:46;;;;;;;0.10;0.10;;;;;;;21.97;55.77;101868.91;5035749;28;20029;-83
2021/07/02 10:36:15;;;;;;;0.30;0.30;;;;;;;21.88;55.79;101866.69;5040156;28;20129;-82
2021/07/02 10:38:44;;;;;;;0.32;0.32;;;;;;;22.17;54.18;101858.88;5035729;28;20025;-84
2021/07/02 10:44:13;;;;;;;0.45;0.45;;;;;;;22.56;53.82;101846.06;5072355;28;20489;-83
2021/07/02 10:46:41;;;;;;;0.20;0.20;;;;;;;22.82;54.03;101850.00;5059446;28;20029;-83
2021/07/02 10:49:09;;;;;;;0.17;0.17;;;;;;;22.75;51.77;101852.19;5055180;28;20026;-82
2021/07/02 11:02:26;;;;;;;0.20;0.20;;;;;;;23.68;50.57;101855.03;5134793;27;20400;-84
2021/07/02 11:04:57;;;;;;;0.28;0.28;;;;;;;23.47;50.52;101856.31;5107533;28;20399;-81
2021/07/02 11:10:07;;;;;;;0.75;0.43;;;;;;;23.56;50.09;101847.63;5109968;27;21007;-82
2021/07/02 11:15:15;;;;;;;0.10;0.10;;;;;;;24.08;49.87;101840.94;5070055;28;20987;-80
2021/07/02 11:17:45;;;;;;;0.63;0.32;;;;;;;24.27;49.43;101839.81;5070760;28;20039;-81
2021/07/02 11:26:02;;;;;;;0.10;0.10;;;;;;;24.82;48.03;101836.34;5037502;28;20434;-80
2021/07/02 11:28:45;;;;;;;1.05;1.05;;;;;;;24.92;48.02;101843.88;5010359;28;20125;-81
2021/07/02 11:31:13;;;;;;;0.40;0.40;;;;;;;24.75;46.57;101845.84;5029267;28;20436;-81
2021/07/02 11:33:40;;;;;;;0.20;0.20;;;;;;;24.74;47.75;101844.09;5018529;28;20026;-81
2021/07/02 11:36:09;;;;;;;0.20;0.20;;;;;;;24.79;47.62;101841.94;5009045;28;20084;-81
2021/07/02 11:38:46;;;;;;;0.35;0.35;;;;;;;24.96;47.79;101834.56;5009667;28;20061;-81
2021/07/02 11:41:21;;;;;;;0.30;0.30;;;;;;;25.08;47.21;101841.03;5010189;28;20394;-86
2021/07/02 11:43:48;;;;;;;0.10;0.10;;;;;;;25.05;47.05;101831.25;5009392;28;20035;-82
2021/07/02 11:46:16;;;;;;;1.58;1.48;;;;;;;25.18;47.89;101840.31;5010750;28;20023;-82
2021/07/02 11:48:47;;;;;;;0.20;0.20;;;;;;;25.33;48.16;101838.44;5010263;28;20393;-82
2021/07/02 11:51:18;;;;;;;0.53;0.53;;;;;;;25.06;48.16;101838.41;5010599;28;20077;-82
2021/07/02 11:53:53;;;;;;;0.27;0.27;;;;;;;25.19;47.65;101833.91;4992162;28;20332;-81
2021/07/02 12:01:45;;;;;;;0.13;0.13;;;;;;;25.11;48.29;101847.13;5071122;27;20431;-83
2021/07/02 12:04:13;;;;;;;0.63;0.63;;;;;;;24.84;47.86;101838.94;5058420;28;20472;-82
2021/07/02 12:06:42;;;;;;;0.90;0.90;;;;;;;24.97;48.68;101845.31;5050511;28;20044;-82
2021/07/02 12:09:12;;;;;;;1.00;1.00;;;;;;;24.96;47.54;101838.16;5050280;28;20040;-82
2021/07/02 12:11:51;;;;;;;0.10;0.10;;;;;;;24.94;48.90;101834.66;5050450;28;20522;-82
2021/07/02 12:14:27;;;;;;;3.50;1.75;;;;;;;24.94;48.98;101837.38;5049879;28;20025;-83